Time;durP1;ratioP1;P1;durP2;ratioP2;P2;SDS_P1;SDS_P2;PMS_P1;PMS_P2;Temp;Humidity;BMP_temperature;BMP_pressure;BME280_temperature;BME280_humidity;BME280_pressure;Samples;Min_cycle;Max_cycle;Signal;HPM_P1;HPM_P2
2021/11/03 00:01:49;;;;;;;;;;;;;;;4.71;90.36;95127.44;5076412;28;20008;-76
2021/11/03 00:04:15;;;;;;;;;;;;;;;4.72;90.36;95123.81;5077146;28;19944;-76
2021/11/03 00:06:42;;;;;;;;;;;;;;;4.74;90.48;95122.59;5076290;28;20002;-76
2021/11/03 00:09:08;;;;;;;;;;;;;;;4.75;90.74;95126.78;5076518;28;19965;-76
2021/11/03 00:11:34;;;;;;;;;;;;;;;4.78;91.02;95117.78;5076640;28;19955;-76
2021/11/03 00:14:00;;;;;;;;;;;;;;;4.79;91.19;95122.75;5076250;28;19950;-76
2021/11/03 00:16:27;;;;;;;;;;;;;;;4.80;91.03;95121.75;5076556;28;19960;-76
2021/11/03 00:18:52;;;;;;;;;;;;;;;4.81;90.95;95114.75;5076268;28;20416;-76
2021/11/03 00:21:18;;;;;;;;;;;;;;;4.80;91.05;95106.16;5076389;28;19950;-76
2021/11/03 00:23:44;;;;;;;;;;;;;;;4.80;91.41;95106.16;5076261;28;20052;-76
2021/11/03 00:26:10;;;;;;;;;;;;;;;4.82;91.26;95098.16;5076426;28;20044;-76
2021/11/03 00:28:36;;;;;;;;;;;;;;;4.83;91.56;95099.72;5075003;28;19962;-77
2021/11/03 00:31:02;;;;;;;;;;;;;;;4.83;91.76;95097.13;5075963;28;19977;-76
2021/11/03 00:33:29;;;;;;;;;;;;;;;4.85;91.44;95097.72;5075861;28;20010;-75
2021/11/03 00:35:55;;;;;;;;;;;;;;;4.86;91.66;95091.53;5076266;28;19954;-76
2021/11/03 00:38:22;;;;;;;;;;;;;;;4.88;91.69;95092.09;5075898;28;20464;-75
2021/11/03 00:40:48;;;;;;;;;;;;;;;4.91;91.78;95085.69;5075948;28;19958;-75
2021/11/03 00:43:14;;;;;;;;;;;;;;;4.90;91.75;95073.72;5075634;28;19962;-75
2021/11/03 00:45:40;;;;;;;;;;;;;;;4.92;91.99;95066.50;5075956;28;20378;-75
2021/11/03 00:48:06;;;;;;;;;;;;;;;4.92;92.22;95066.50;5075528;28;20296;-75
2021/11/03 00:50:33;;;;;;;;;;;;;;;4.92;92.21;95069.88;5075532;28;20058;-76
2021/11/03 00:52:58;;;;;;;;;;;;;;;4.93;92.21;95065.47;5075612;28;19983;-76
2021/11/03 00:55:24;;;;;;;;;;;;;;;4.95;92.30;95068.66;5075344;28;20430;-76
2021/11/03 00:57:50;;;;;;;;;;;;;;;4.95;92.36;95066.84;5075389;28;19957;-76
2021/11/03 01:00:17;;;;;;;;;;;;;;;4.97;92.29;95064.03;5075695;28;19958;-77
2021/11/03 01:02:43;;;;;;;;;;;;;;;4.99;92.42;95073.19;5075740;28;20327;-75
2021/11/03 01:05:11;;;;;;;;;;;;;;;4.99;92.47;95072.41;5075261;28;19967;-76
2021/11/03 01:07:37;;;;;;;;;;;;;;;4.98;92.57;95071.63;5075427;28;19953;-76
2021/11/03 01:10:04;;;;;;;;;;;;;;;4.97;92.41;95064.03;5075402;28;19965;-76
2021/11/03 01:12:30;;;;;;;;;;;;;;;4.94;92.09;95064.50;5074970;28;19970;-76
2021/11/03 01:14:56;;;;;;;;;;;;;;;4.94;92.47;95067.09;5075157;28;19953;-76
2021/11/03 01:17:22;;;;;;;;;;;;;;;4.93;92.46;95075.88;5074991;28;19943;-74
2021/11/03 01:19:48;;;;;;;;;;;;;;;4.94;93.03;95072.28;5074931;28;19988;-74
2021/11/03 01:22:14;;;;;;;;;;;;;;;4.94;92.93;95077.47;5075100;28;20009;-74
2021/11/03 01:24:40;;;;;;;;;;;;;;;4.92;92.51;95074.28;5075229;28;19964;-74
2021/11/03 01:27:05;;;;;;;;;;;;;;;4.91;92.57;95075.28;5074860;28;20015;-74
2021/11/03 01:29:31;;;;;;;;;;;;;;;4.91;92.66;95073.47;5074152;28;20026;-75
2021/11/03 01:31:57;;;;;;;;;;;;;;;4.93;92.95;95073.28;5074785;28;20413;-75
2021/11/03 01:34:23;;;;;;;;;;;;;;;4.94;92.66;95067.09;5074969;28;19954;-74
2021/11/03 01:36:49;;;;;;;;;;;;;;;4.93;92.21;95074.06;5074707;28;20293;-74
2021/11/03 01:39:15;;;;;;;;;;;;;;;4.93;92.11;95073.28;5074596;28;19956;-75
2021/11/03 01:41:41;;;;;;;;;;;;;;;4.89;91.86;95075.50;5074733;28;19952;-75
2021/11/03 01:44:07;;;;;;;;;;;;;;;4.87;92.02;95061.94;5074528;28;20004;-74
2021/11/03 01:46:36;;;;;;;;;;;;;;;4.84;92.15;95057.97;5074484;28;19961;-75
2021/11/03 01:49:04;;;;;;;;;;;;;;;4.83;92.54;95038.22;5063331;28;19958;-74
2021/11/03 01:51:44;;;;;;;;;;;;;;;4.85;92.82;95035.38;5072992;28;19960;-74
2021/11/03 01:54:12;;;;;;;;;;;;;;;4.86;93.20;95016.22;5074343;28;20330;-74
2021/11/03 01:56:39;;;;;;;;;;;;;;;4.85;93.23;94999.84;5074282;28;20341;-75
2021/11/03 01:59:14;;;;;;;;;;;;;;;4.85;93.35;95007.63;5074065;28;19954;-74
2021/11/03 02:01:39;;;;;;;;;;;;;;;4.86;93.64;95009.19;5073414;28;19952;-75
2021/11/03 02:04:06;;;;;;;;;;;;;;;4.88;93.56;94998.59;5074256;28;20443;-74
2021/11/03 02:06:32;;;;;;;;;;;;;;;4.90;93.67;95006.97;5074282;28;19963;-74
2021/11/03 02:08:58;;;;;;;;;;;;;;;4.91;93.99;95005.94;5073934;28;19955;-75
2021/11/03 02:11:25;;;;;;;;;;;;;;;4.93;93.95;95013.53;5073893;28;19968;-74
2021/11/03 02:13:51;;;;;;;;;;;;;;;4.95;93.72;95009.69;5074176;28;19964;-74
2021/11/03 02:16:18;;;;;;;;;;;;;;;4.98;93.68;95014.47;5074007;28;19951;-74
2021/11/03 02:18:44;;;;;;;;;;;;;;;4.99;93.29;95010.84;5074109;28;19956;-74
2021/11/03 02:21:13;;;;;;;;;;;;;;;4.99;93.44;95017.84;5073793;28;19985;-75
2021/11/03 02:23:58;;;;;;;;;;;;;;;4.98;93.72;95016.28;5074594;28;19977;-75
2021/11/03 02:26:26;;;;;;;;;;;;;;;4.96;93.22;95011.31;5072854;28;19955;-75
2021/11/03 02:28:52;;;;;;;;;;;;;;;4.94;92.85;95013.31;5073707;28;19952;-75
2021/11/03 02:31:33;;;;;;;;;;;;;;;4.93;92.84;95010.94;5073704;28;19968;-75
2021/11/03 02:34:00;;;;;;;;;;;;;;;4.87;93.15;95010.81;5074260;28;19956;-75
2021/11/03 02:36:26;;;;;;;;;;;;;;;4.85;93.24;95006.81;5073589;28;20351;-75
2021/11/03 02:38:52;;;;;;;;;;;;;;;4.84;93.47;94992.25;5073816;28;19963;-75
2021/11/03 02:41:23;;;;;;;;;;;;;;;4.83;93.76;94991.47;5073359;28;19954;-75
2021/11/03 02:43:58;;;;;;;;;;;;;;;4.84;93.81;94998.25;5073732;28;19960;-75
2021/11/03 02:46:24;;;;;;;;;;;;;;;4.83;93.57;94994.06;5073616;28;19953;-75
2021/11/03 02:48:49;;;;;;;;;;;;;;;4.85;93.97;94997.25;5072309;28;19961;-75
2021/11/03 02:51:17;;;;;;;;;;;;;;;4.86;93.88;94996.22;5073583;28;19970;-74
2021/11/03 02:53:46;;;;;;;;;;;;;;;4.89;93.99;94992.38;5073530;28;19978;-75
2021/11/03 02:56:12;;;;;;;;;;;;;;;4.91;93.55;94987.75;5073477;28;19960;-75
2021/11/03 02:58:38;;;;;;;;;;;;;;;4.93;93.09;94993.53;5073604;28;19954;-75
2021/11/03 03:01:27;;;;;;;;;;;;;;;4.94;93.27;94987.34;5073526;28;19998;-73
2021/11/03 03:03:53;;;;;;;;;;;;;;;4.96;92.87;94989.72;5063676;28;19959;-73
2021/11/03 03:06:21;;;;;;;;;;;;;;;4.95;92.59;94991.50;5073171;28;20020;-75
2021/11/03 03:08:47;;;;;;;;;;;;;;;4.92;92.68;94989.38;5073198;28;19956;-75
2021/11/03 03:11:13;;;;;;;;;;;;;;;4.88;92.43;94991.59;5073594;28;20440;-75
2021/11/03 03:13:39;;;;;;;;;;;;;;;4.82;92.35;94982.06;5077576;28;20302;-75
2021/11/03 03:16:05;;;;;;;;;;;;;;;4.80;92.84;94989.28;5077314;28;20411;-75
2021/11/03 03:18:31;;;;;;;;;;;;;;;4.81;92.82;94982.31;5077563;28;20041;-75
2021/11/03 03:20:57;;;;;;;;;;;;;;;4.80;92.60;94981.50;5077382;28;20059;-75
2021/11/03 03:23:23;;;;;;;;;;;;;;;4.80;93.23;94981.50;5077383;28;20006;-75
2021/11/03 03:25:50;;;;;;;;;;;;;;;4.78;93.06;94972.34;5077075;28;19959;-74
2021/11/03 03:28:17;;;;;;;;;;;;;;;4.77;93.21;94971.56;5077108;28;19954;-75
2021/11/03 03:30:44;;;;;;;;;;;;;;;4.78;93.20;94983.53;5077370;28;19951;-75
2021/11/03 03:33:10;;;;;;;;;;;;;;;4.82;93.41;94968.31;5076734;28;19970;-75
2021/11/03 03:35:36;;;;;;;;;;;;;;;4.83;93.22;94972.47;5077475;28;19958;-74
2021/11/03 03:38:02;;;;;;;;;;;;;;;4.85;93.49;94973.88;5076476;28;19953;-75
2021/11/03 03:40:28;;;;;;;;;;;;;;;4.86;93.21;94975.44;5076849;28;19962;-75
2021/11/03 03:42:54;;;;;;;;;;;;;;;4.88;93.13;94975.22;5076964;28;19955;-75
2021/11/03 03:45:21;;;;;;;;;;;;;;;4.86;92.81;94975.44;5076848;28;19954;-75
2021/11/03 03:47:47;;;;;;;;;;;;;;;4.87;92.73;94971.03;5076961;28;19951;-75
2021/11/03 03:50:13;;;;;;;;;;;;;;;4.85;92.91;94971.28;5076769;28;19957;-75
2021/11/03 03:52:40;;;;;;;;;;;;;;;4.87;92.83;94973.63;5076146;28;19968;-75
2021/11/03 03:55:07;;;;;;;;;;;;;;;4.90;93.28;94975.03;5076661;28;19957;-75
2021/11/03 03:57:33;;;;;;;;;;;;;;;4.87;93.13;94966.66;5076424;28;19966;-74
2021/11/03 03:59:59;;;;;;;;;;;;;;;4.89;93.04;94969.00;5076996;28;19956;-75
2021/11/03 04:02:25;;;;;;;;;;;;;;;4.88;92.99;94970.03;5076571;28;19993;-75
2021/11/03 04:04:51;;;;;;;;;;;;;;;4.89;92.84;94974.19;5076384;28;19960;-75
2021/11/03 04:07:17;;;;;;;;;;;;;;;4.90;93.27;94968.00;5076424;28;19948;-75
2021/11/03 04:09:43;;;;;;;;;;;;;;;4.86;93.03;94959.84;5076131;28;19957;-75
2021/11/03 04:12:09;;;;;;;;;;;;;;;4.81;93.09;94957.13;5076229;28;19975;-76
2021/11/03 04:14:35;;;;;;;;;;;;;;;4.77;93.04;94966.38;5076568;28;20420;-75
2021/11/03 04:17:01;;;;;;;;;;;;;;;4.74;93.25;94966.78;5076806;28;19998;-75
2021/11/03 04:19:26;;;;;;;;;;;;;;;4.70;93.64;94967.44;5076095;28;19999;-74
2021/11/03 04:21:52;;;;;;;;;;;;;;;4.72;94.03;94963.63;5076060;28;20460;-75
2021/11/03 04:24:19;;;;;;;;;;;;;;;4.73;93.89;94956.63;5075310;28;20488;-75
2021/11/03 04:26:47;;;;;;;;;;;;;;;4.74;94.10;94966.00;5075893;28;20326;-75
2021/11/03 04:29:13;;;;;;;;;;;;;;;4.76;93.96;94962.16;5076475;28;19959;-75
2021/11/03 04:31:39;;;;;;;;;;;;;;;4.78;94.06;94949.75;5075870;28;19962;-75
2021/11/03 04:34:05;;;;;;;;;;;;;;;4.79;93.87;94948.75;5076248;28;20388;-75
2021/11/03 04:36:32;;;;;;;;;;;;;;;4.78;94.02;94947.16;5075951;28;19950;-75
2021/11/03 04:39:00;;;;;;;;;;;;;;;4.77;93.81;94939.63;5075755;28;20429;-74
2021/11/03 04:41:26;;;;;;;;;;;;;;;4.79;93.95;94945.38;5075907;28;19961;-74
2021/11/03 04:43:52;;;;;;;;;;;;;;;4.81;93.84;94933.75;5075848;28;19960;-73
2021/11/03 04:46:18;;;;;;;;;;;;;;;4.82;93.65;94929.34;5075653;28;19973;-75
2021/11/03 04:48:45;;;;;;;;;;;;;;;4.83;93.78;94926.53;5075668;28;19953;-75
2021/11/03 04:51:11;;;;;;;;;;;;;;;4.82;93.79;94930.13;5075811;28;19956;-75
2021/11/03 04:53:37;;;;;;;;;;;;;;;4.82;94.23;94921.56;5075264;28;19979;-75
2021/11/03 04:56:04;;;;;;;;;;;;;;;4.77;93.30;94909.22;5076098;28;19962;-75
2021/11/03 04:58:31;;;;;;;;;;;;;;;4.71;94.04;94911.91;5075584;28;20396;-75
2021/11/03 05:00:57;;;;;;;;;;;;;;;4.72;94.82;94910.91;5075494;28;19961;-76
2021/11/03 05:03:23;;;;;;;;;;;;;;;4.74;94.60;94907.06;5075482;28;19945;-75
2021/11/03 05:05:50;;;;;;;;;;;;;;;4.77;95.03;94911.03;5075471;28;20007;-75
2021/11/03 05:08:16;;;;;;;;;;;;;;;4.80;94.91;94902.81;5075283;28;19957;-75
2021/11/03 05:10:42;;;;;;;;;;;;;;;4.81;94.95;94894.03;5075390;28;20019;-75
2021/11/03 05:13:08;;;;;;;;;;;;;;;4.83;94.81;94895.38;5075186;28;20339;-75
2021/11/03 05:15:34;;;;;;;;;;;;;;;4.86;94.46;94902.72;5075291;28;19988;-75
2021/11/03 05:18:00;;;;;;;;;;;;;;;4.89;94.71;94906.66;5075213;28;19953;-75
2021/11/03 05:20:27;;;;;;;;;;;;;;;4.89;94.28;94906.66;5075122;28;19956;-75
2021/11/03 05:22:53;;;;;;;;;;;;;;;4.89;94.38;94901.47;5074658;28;20308;-75
2021/11/03 05:25:21;;;;;;;;;;;;;;;4.86;94.23;94887.13;5074804;28;19959;-75
2021/11/03 05:27:47;;;;;;;;;;;;;;;4.85;94.91;94903.75;5073849;28;19954;-75
2021/11/03 05:30:14;;;;;;;;;;;;;;;4.85;94.75;94888.16;5059059;28;19961;-74
2021/11/03 05:32:40;;;;;;;;;;;;;;;4.89;94.79;94888.50;5074810;28;19958;-74
2021/11/03 05:35:06;;;;;;;;;;;;;;;4.91;94.49;94876.06;5073742;28;19952;-75
2021/11/03 05:37:32;;;;;;;;;;;;;;;4.93;94.32;94868.06;5074725;28;19951;-75
2021/11/03 05:39:58;;;;;;;;;;;;;;;4.91;93.87;94857.91;5074711;28;20451;-75
2021/11/03 05:42:24;;;;;;;;;;;;;;;4.90;93.61;94858.13;5074766;28;19954;-75
2021/11/03 05:44:50;;;;;;;;;;;;;;;4.88;93.45;94855.75;5074880;28;19956;-75
2021/11/03 05:47:29;;;;;;;;;;;;;;;4.90;93.82;94855.53;5074612;28;19952;-75
2021/11/03 05:49:56;;;;;;;;;;;;;;;4.91;93.72;94852.69;5074847;28;19959;-75
2021/11/03 05:52:23;;;;;;;;;;;;;;;4.93;94.06;94839.50;5074265;28;19978;-76
2021/11/03 05:54:49;;;;;;;;;;;;;;;4.95;93.78;94835.66;5074987;28;19979;-75
2021/11/03 05:57:22;;;;;;;;;;;;;;;4.97;94.09;94825.06;5074490;28;20074;-75
2021/11/03 05:59:48;;;;;;;;;;;;;;;4.98;94.04;94821.47;5074397;28;19954;-75
2021/11/03 06:02:14;;;;;;;;;;;;;;;4.99;94.24;94828.22;5074306;28;19960;-75
2021/11/03 06:04:40;;;;;;;;;;;;;;;4.96;94.01;94813.88;5074401;28;20001;-75
2021/11/03 06:07:06;;;;;;;;;;;;;;;4.97;94.32;94814.66;5073079;28;19972;-75
2021/11/03 06:09:32;;;;;;;;;;;;;;;4.99;94.10;94812.63;5074669;28;19948;-75
2021/11/03 06:11:58;;;;;;;;;;;;;;;4.99;94.20;94812.63;5074350;28;19974;-75
2021/11/03 06:14:24;;;;;;;;;;;;;;;5.01;94.17;94805.41;5074082;28;20445;-74
2021/11/03 06:16:50;;;;;;;;;;;;;;;5.01;94.30;94811.41;5073868;28;19960;-74
2021/11/03 06:19:16;;;;;;;;;;;;;;;5.03;94.70;94811.19;5074181;28;19960;-75
2021/11/03 06:21:42;;;;;;;;;;;;;;;5.06;95.31;94814.13;5073047;28;20046;-75
2021/11/03 06:24:08;;;;;;;;;;;;;;;5.09;95.43;94829.25;5074371;28;19987;-75
2021/11/03 06:26:34;;;;;;;;;;;;;;;5.09;95.61;94824.06;5074003;28;19983;-75
2021/11/03 06:29:00;;;;;;;;;;;;;;;5.11;95.79;94817.88;5074129;28;19954;-75
2021/11/03 06:31:26;;;;;;;;;;;;;;;5.13;96.28;94816.63;5074165;28;19971;-75
2021/11/03 06:33:52;;;;;;;;;;;;;;;5.13;96.99;94831.44;5073691;28;19976;-75
2021/11/03 06:36:18;;;;;;;;;;;;;;;5.13;96.47;94818.44;5073837;28;19961;-75
2021/11/03 06:38:45;;;;;;;;;;;;;;;5.13;96.44;94827.00;5073670;28;19981;-75
2021/11/03 06:41:12;;;;;;;;;;;;;;;5.15;96.55;94830.19;5074047;28;20333;-75
2021/11/03 06:43:38;;;;;;;;;;;;;;;5.17;96.31;94835.94;5073655;28;19950;-76
2021/11/03 06:46:04;;;;;;;;;;;;;;;5.20;96.30;94843.28;5073416;28;19966;-76
2021/11/03 06:48:30;;;;;;;;;;;;;;;5.22;96.45;94827.47;5073415;28;20409;-75
2021/11/03 06:50:56;;;;;;;;;;;;;;;5.23;96.86;94819.47;5073681;28;19963;-75
2021/11/03 06:53:24;;;;;;;;;;;;;;;5.22;96.46;94817.88;5073962;28;19980;-75
2021/11/03 06:55:50;;;;;;;;;;;;;;;5.24;96.39;94825.44;5073574;28;20438;-75
2021/11/03 06:58:18;;;;;;;;;;;;;;;5.27;96.23;94832.78;5073358;28;20048;-75
2021/11/03 07:00:44;;;;;;;;;;;;;;;5.31;96.31;94825.34;5073702;28;20315;-75
2021/11/03 07:03:10;;;;;;;;;;;;;;;5.34;96.27;94823.09;5073877;28;19960;-75
2021/11/03 07:05:39;;;;;;;;;;;;;;;5.37;96.20;94821.84;5073585;28;19959;-75
2021/11/03 07:08:04;;;;;;;;;;;;;;;5.41;96.27;94808.16;5073468;28;19956;-75
2021/11/03 07:10:33;;;;;;;;;;;;;;;5.40;96.01;94798.81;5073814;28;19951;-75
2021/11/03 07:12:59;;;;;;;;;;;;;;;5.41;96.03;94809.97;5073455;28;19977;-75
2021/11/03 07:15:25;;;;;;;;;;;;;;;5.43;96.20;94815.75;5073102;28;20392;-75
2021/11/03 07:17:51;;;;;;;;;;;;;;;5.44;96.32;94831.13;5073607;28;19959;-75
2021/11/03 07:20:18;;;;;;;;;;;;;;;5.46;96.50;94830.91;5073551;28;20331;-75
2021/11/03 07:22:44;;;;;;;;;;;;;;;5.47;96.29;94830.66;5073597;28;19953;-75
2021/11/03 07:25:11;;;;;;;;;;;;;;;5.50;96.41;94824.22;5073590;28;20423;-75
2021/11/03 07:27:37;;;;;;;;;;;;;;;5.49;95.56;94801.84;5073147;28;19952;-75
2021/11/03 07:30:04;;;;;;;;;;;;;;;5.48;95.72;94793.28;5073344;28;19959;-75
2021/11/03 07:32:30;;;;;;;;;;;;;;;5.54;96.70;94808.97;5072439;28;20448;-75
2021/11/03 07:34:56;;;;;;;;;;;;;;;5.57;96.64;94818.94;5073346;28;19962;-75
2021/11/03 07:37:25;;;;;;;;;;;;;;;5.62;96.99;94822.41;5073413;28;20003;-75
2021/11/03 07:39:51;;;;;;;;;;;;;;;5.67;96.84;94830.34;5073170;28;19963;-77
2021/11/03 07:42:17;;;;;;;;;;;;;;;5.72;96.61;94821.84;5072982;28;19964;-75
2021/11/03 07:44:42;;;;;;;;;;;;;;;5.78;96.27;94809.75;5073495;28;19993;-75
2021/11/03 07:47:08;;;;;;;;;;;;;;;5.84;95.87;94819.25;5073020;28;19960;-75
2021/11/03 07:49:34;;;;;;;;;;;;;;;5.89;95.92;94825.34;5073474;28;19963;-75
2021/11/03 07:52:00;;;;;;;;;;;;;;;5.94;95.61;94810.84;5073072;28;19959;-75
2021/11/03 07:54:26;;;;;;;;;;;;;;;5.96;95.33;94816.66;5073383;28;20395;-76
2021/11/03 07:56:52;;;;;;;;;;;;;;;5.99;95.31;94805.81;5073266;28;20048;-75
2021/11/03 07:59:19;;;;;;;;;;;;;;;6.01;95.47;94798.56;5074494;28;19953;-75
2021/11/03 08:01:45;;;;;;;;;;;;;;;6.04;95.53;94790.28;5076783;28;20411;-75
2021/11/03 08:04:11;;;;;;;;;;;;;;;6.07;95.21;94802.84;5076914;28;19962;-75
2021/11/03 08:06:39;;;;;;;;;;;;;;;6.09;94.78;94804.19;5076683;28;20410;-75
2021/11/03 08:09:06;;;;;;;;;;;;;;;6.12;94.44;94809.97;5076646;28;20015;-76
2021/11/03 08:11:36;;;;;;;;;;;;;;;6.14;94.24;94805.31;5076359;28;19956;-75
2021/11/03 08:14:03;;;;;;;;;;;;;;;6.12;94.13;94810.75;5076251;28;20407;-75
2021/11/03 08:16:38;;;;;;;;;;;;;;;6.10;94.36;94803.16;5076363;28;19969;-75
2021/11/03 08:19:03;;;;;;;;;;;;;;;6.12;94.60;94802.94;5076402;28;20309;-75
2021/11/03 08:21:30;;;;;;;;;;;;;;;6.13;94.47;94806.31;5076368;28;19964;-75
2021/11/03 08:23:55;;;;;;;;;;;;;;;6.13;94.22;94801.91;5076100;28;19956;-75
2021/11/03 08:26:22;;;;;;;;;;;;;;;6.11;93.98;94803.97;5076351;28;20422;-75
2021/11/03 08:28:48;;;;;;;;;;;;;;;6.08;93.25;94807.81;5076173;28;19964;-75
2021/11/03 08:31:14;;;;;;;;;;;;;;;6.08;93.41;94812.22;5076322;28;19959;-75
2021/11/03 08:33:43;;;;;;;;;;;;;;;6.08;93.22;94820.81;5076097;28;19961;-76
2021/11/03 08:36:10;;;;;;;;;;;;;;;6.12;93.00;94828.19;5063444;28;19947;-76
2021/11/03 08:38:36;;;;;;;;;;;;;;;6.13;93.68;94827.94;5076125;28;19950;-75
2021/11/03 08:41:03;;;;;;;;;;;;;;;6.16;93.82;94835.28;5076013;28;19951;-75
2021/11/03 08:43:34;;;;;;;;;;;;;;;6.20;93.22;94838.25;5075890;28;19959;-75
2021/11/03 08:46:00;;;;;;;;;;;;;;;6.22;93.83;94838.81;5076093;28;20400;-75
2021/11/03 08:48:27;;;;;;;;;;;;;;;6.28;93.30;94835.28;5075802;28;19954;-75
2021/11/03 08:50:53;;;;;;;;;;;;;;;6.33;93.85;94827.56;5075515;28;20329;-76
2021/11/03 08:53:19;;;;;;;;;;;;;;;6.38;93.61;94814.63;5075835;28;19977;-75
2021/11/03 08:55:46;;;;;;;;;;;;;;;6.45;93.69;94823.09;5075800;28;20417;-75
2021/11/03 08:58:14;;;;;;;;;;;;;;;6.54;94.20;94813.13;5075835;28;20343;-75
2021/11/03 09:00:41;;;;;;;;;;;;;;;6.63;94.75;94822.13;5075832;28;19960;-75
2021/11/03 09:03:07;;;;;;;;;;;;;;;6.72;93.68;94814.75;5075619;28;19958;-75
2021/11/03 09:05:33;;;;;;;;;;;;;;;6.83;93.78;94813.13;5075595;28;19950;-75
2021/11/03 09:08:02;;;;;;;;;;;;;;;6.94;94.05;94807.03;5075569;28;19959;-76
2021/11/03 09:10:29;;;;;;;;;;;;;;;7.03;93.94;94816.03;5075513;28;19948;-75
2021/11/03 09:12:55;;;;;;;;;;;;;;;7.10;92.92;94821.13;5075466;28;19960;-75
2021/11/03 09:15:21;;;;;;;;;;;;;;;7.18;92.64;94812.13;5075462;28;19956;-75
2021/11/03 09:17:47;;;;;;;;;;;;;;;7.22;92.74;94811.41;5075098;28;19961;-76
2021/11/03 09:20:14;;;;;;;;;;;;;;;7.26;93.06;94816.94;5075339;28;19955;-75
2021/11/03 09:22:41;;;;;;;;;;;;;;;7.30;92.61;94815.44;5075524;28;19963;-76
2021/11/03 09:25:09;;;;;;;;;;;;;;;7.32;92.38;94816.78;5075754;28;19954;-75
2021/11/03 09:27:35;;;;;;;;;;;;;;;7.38;91.55;94811.66;5075027;28;19949;-75
2021/11/03 09:30:02;;;;;;;;;;;;;;;7.41;91.99;94816.38;5074461;28;19948;-75
2021/11/03 09:32:29;;;;;;;;;;;;;;;7.45;91.88;94818.28;5075425;28;19949;-76
2021/11/03 09:34:55;;;;;;;;;;;;;;;7.48;91.63;94817.81;5074703;28;20337;-75
2021/11/03 09:37:23;;;;;;;;;;;;;;;7.52;90.87;94810.31;5074924;28;19953;-75
2021/11/03 09:39:50;;;;;;;;;;;;;;;7.58;91.34;94818.97;5074759;28;19958;-75
2021/11/03 09:42:17;;;;;;;;;;;;;;;7.62;91.15;94813.06;5074894;28;19958;-75
2021/11/03 09:44:44;;;;;;;;;;;;;;;7.67;90.86;94815.75;5074636;28;20326;-75
2021/11/03 09:47:22;;;;;;;;;;;;;;;7.71;90.93;94814.22;5074649;28;19954;-75
2021/11/03 09:50:11;;;;;;;;;;;;;;;7.71;89.17;94816.06;5074622;28;20390;-75
2021/11/03 09:52:39;;;;;;;;;;;;;;;7.73;89.33;94827.03;5074648;28;19978;-75
2021/11/03 09:55:19;;;;;;;;;;;;;;;7.75;90.80;94825.00;5074639;28;19963;-76
2021/11/03 09:57:46;;;;;;;;;;;;;;;7.75;90.55;94840.66;5074690;28;19955;-75
2021/11/03 10:00:20;;;;;;;;;;;;;;;7.75;90.29;94847.66;5074647;28;19956;-76
2021/11/03 10:03:04;;;;;;;;;;;;;;;7.72;89.56;94841.09;5060129;28;19953;-75
2021/11/03 10:05:36;;;;;;;;;;;;;;;7.70;89.54;94845.78;5074330;28;20321;-75
2021/11/03 10:08:10;;;;;;;;;;;;;;;7.69;89.23;94846.81;5074252;28;19957;-75
2021/11/03 10:10:38;;;;;;;;;;;;;;;7.70;88.06;94848.38;5074199;28;19952;-75
2021/11/03 10:13:15;;;;;;;;;;;;;;;7.75;90.28;94848.47;5074252;28;19966;-75
2021/11/03 10:15:52;;;;;;;;;;;;;;;7.80;88.27;94839.91;5065313;28;20401;-75
2021/11/03 10:18:18;;;;;;;;;;;;;;;7.85;89.21;94842.59;5073974;28;19957;-76
2021/11/03 10:20:47;;;;;;;;;;;;;;;7.88;89.99;94840.28;5074095;28;20314;-75
2021/11/03 10:23:23;;;;;;;;;;;;;;;7.92;88.66;94836.19;5073887;28;19977;-75
2021/11/03 10:26:06;;;;;;;;;;;;;;;7.96;89.58;94831.28;5073976;28;19959;-77
2021/11/03 10:28:38;;;;;;;;;;;;;;;8.00;88.63;94845.44;5073960;28;19963;-76
2021/11/03 10:31:06;;;;;;;;;;;;;;;8.02;88.81;94848.59;5074298;28;20290;-73
2021/11/03 10:33:39;;;;;;;;;;;;;;;7.99;88.56;94856.88;5073666;28;19988;-73
2021/11/03 10:36:17;;;;;;;;;;;;;;;8.00;89.01;94848.03;5073375;28;19949;-73
2021/11/03 10:38:52;;;;;;;;;;;;;;;8.01;88.71;94848.81;5074092;28;19958;-73
2021/11/03 10:41:24;;;;;;;;;;;;;;;8.03;88.28;94857.19;5073736;28;19953;-73
2021/11/03 10:43:58;;;;;;;;;;;;;;;8.05;89.51;94865.59;5073714;28;19951;-73
2021/11/03 10:46:27;;;;;;;;;;;;;;;8.05;87.43;94868.97;5072956;28;19957;-73
2021/11/03 10:49:14;;;;;;;;;;;;;;;8.06;87.68;94869.75;5073740;28;19954;-73
2021/11/03 10:51:41;;;;;;;;;;;;;;;8.06;88.14;94870.56;5053719;28;19970;-73
2021/11/03 10:54:15;;;;;;;;;;;;;;;8.07;86.70;94871.34;5073835;28;20351;-73
2021/11/03 10:56:55;;;;;;;;;;;;;;;8.06;88.46;94870.56;5058911;28;19958;-73
2021/11/03 10:59:20;;;;;;;;;;;;;;;8.09;86.80;94861.47;5073979;28;19950;-73
2021/11/03 11:01:47;;;;;;;;;;;;;;;8.12;87.57;94859.13;5073592;28;20334;-73
2021/11/03 11:04:13;;;;;;;;;;;;;;;8.16;88.19;94856.84;5073424;28;19964;-73
2021/11/03 11:06:42;;;;;;;;;;;;;;;8.19;86.41;94858.19;5073608;28;20310;-73
2021/11/03 11:09:16;;;;;;;;;;;;;;;8.22;88.16;94866.31;5073411;28;20442;-73
2021/11/03 11:11:43;;;;;;;;;;;;;;;8.25;88.68;94858.03;5073653;28;20437;-73
2021/11/03 11:14:17;;;;;;;;;;;;;;;8.29;87.51;94858.31;5073876;28;19971;-73
2021/11/03 11:16:56;;;;;;;;;;;;;;;8.33;88.00;94867.25;5065251;28;19947;-73
2021/11/03 11:19:31;;;;;;;;;;;;;;;8.34;87.07;94861.78;5073472;28;19972;-73
2021/11/03 11:22:00;;;;;;;;;;;;;;;8.37;86.75;94857.09;5073218;28;19965;-73
2021/11/03 11:24:44;;;;;;;;;;;;;;;8.41;86.66;94863.47;5073647;28;20408;-73
2021/11/03 11:27:16;;;;;;;;;;;;;;;8.40;84.13;94860.03;5060326;28;20421;-73
2021/11/03 11:29:56;;;;;;;;;;;;;;;8.41;86.46;94858.22;5073615;28;19956;-73
2021/11/03 11:32:38;;;;;;;;;;;;;;;8.42;87.44;94855.38;5073343;28;19951;-73
2021/11/03 11:35:09;;;;;;;;;;;;;;;8.43;89.09;94849.13;5077367;28;19954;-73
2021/11/03 11:38:05;;;;;;;;;;;;;;;8.44;88.64;94848.09;5077285;28;19958;-73
2021/11/03 11:40:37;;;;;;;;;;;;;;;8.44;88.22;94840.25;5057596;28;20452;-73
2021/11/03 11:43:22;;;;;;;;;;;;;;;8.43;85.60;94843.09;5077012;28;19956;-73
2021/11/03 11:45:48;;;;;;;;;;;;;;;8.41;85.91;94853.78;5063304;28;19962;-73
2021/11/03 11:48:22;;;;;;;;;;;;;;;8.39;86.89;94855.03;5077104;28;19963;-73
2021/11/03 11:50:56;;;;;;;;;;;;;;;8.34;85.03;94861.00;5066693;28;20009;-73
2021/11/03 11:53:42;;;;;;;;;;;;;;;8.32;87.33;94856.00;5076819;28;19981;-73
2021/11/03 11:56:08;;;;;;;;;;;;;;;8.33;87.74;94854.97;5065676;28;19966;-74
2021/11/03 11:58:35;;;;;;;;;;;;;;;8.34;87.61;94850.56;5076664;28;19959;-74
2021/11/03 12:01:13;;;;;;;;;;;;;;;8.34;88.83;94853.94;5076862;28;19960;-73
2021/11/03 12:04:11;;;;;;;;;;;;;;;8.31;88.17;94857.03;5065625;28;20001;-73
2021/11/03 12:06:42;;;;;;;;;;;;;;;8.26;87.72;94854.38;5076622;28;19953;-73
2021/11/03 12:09:19;;;;;;;;;;;;;;;8.22;87.66;94850.66;5076603;28;19948;-73
2021/11/03 12:11:48;;;;;;;;;;;;;;;8.19;88.96;94847.72;5077102;28;19956;-73
2021/11/03 12:14:21;;;;;;;;;;;;;;;8.16;88.48;94856.06;5076460;28;19977;-73
2021/11/03 12:17:16;;;;;;;;;;;;;;;8.11;86.49;94852.34;5076510;28;19958;-73
2021/11/03 12:19:46;;;;;;;;;;;;;;;8.08;87.69;94865.91;5066013;28;20428;-73
2021/11/03 12:22:33;;;;;;;;;;;;;;;8.07;88.32;94871.34;5076552;28;20413;-73
2021/11/03 12:25:31;;;;;;;;;;;;;;;8.04;86.79;94871.81;5076204;28;19950;-73
2021/11/03 12:28:09;;;;;;;;;;;;;;;7.99;88.35;94875.16;5064263;28;19952;-75
2021/11/03 12:30:37;;;;;;;;;;;;;;;8.02;88.78;94885.13;5060422;28;19955;-75
2021/11/03 12:33:08;;;;;;;;;;;;;;;8.03;88.17;94888.53;5075964;28;19946;-75
2021/11/03 12:35:34;;;;;;;;;;;;;;;8.00;88.32;94881.16;5076150;28;19955;-75
2021/11/03 12:38:21;;;;;;;;;;;;;;;8.01;87.53;94880.94;5076239;28;19949;-75
2021/11/03 12:40:50;;;;;;;;;;;;;;;7.98;87.80;94886.63;5065271;28;19961;-75
2021/11/03 12:43:31;;;;;;;;;;;;;;;7.96;87.85;94890.50;5075879;28;20394;-75
2021/11/03 12:46:06;;;;;;;;;;;;;;;7.93;88.88;94895.16;5074780;28;19957;-75
2021/11/03 12:48:44;;;;;;;;;;;;;;;7.91;87.69;94888.59;5063496;28;19949;-75
2021/11/03 12:51:23;;;;;;;;;;;;;;;7.90;89.30;94887.81;5075769;28;19949;-75
2021/11/03 12:53:51;;;;;;;;;;;;;;;7.88;86.78;94884.66;5075793;28;19981;-75
2021/11/03 12:56:20;;;;;;;;;;;;;;;7.85;88.12;94882.53;5074580;28;19951;-75
2021/11/03 12:58:48;;;;;;;;;;;;;;;7.85;88.94;94882.53;5075546;28;19947;-75
2021/11/03 13:01:21;;;;;;;;;;;;;;;7.82;88.07;94871.78;5075547;28;19949;-75
2021/11/03 13:03:49;;;;;;;;;;;;;;;7.75;86.52;94877.16;5076290;28;19959;-75
2021/11/03 13:06:16;;;;;;;;;;;;;;;7.69;86.29;94886.72;5075812;28;19962;-75